createdAt,value
2018-09-10T00:00:01.520Z,7.9
2018-09-10T00:10:01.391Z,7.4
2018-09-10T00:15:01.393Z,7.5
2018-09-10T00:20:01.457Z,7.7
2018-09-10T00:25:01.365Z,7.5
2018-09-10T00:30:01.389Z,7.6
2018-09-10T00:40:01.548Z,7.4
2018-09-10T00:45:01.381Z,7.3
2018-09-10T00:50:01.477Z,7.3
2018-09-10T00:55:01.364Z,6.8
2018-09-10T01:00:01.385Z,7.2
2018-09-10T01:05:01.391Z,7.0
2018-09-10T01:15:06.422Z,7.0
2018-09-10T01:20:01.455Z,7.6
2018-09-10T01:25:01.347Z,7.0
2018-09-10T01:30:01.452Z,7.1
2018-09-10T01:35:01.390Z,6.6
2018-09-10T01:40:01.525Z,6.4
2018-09-10T01:45:01.382Z,6.3
2018-09-10T01:55:01.540Z,6.8
2018-09-10T02:00:01.388Z,7.4
2018-09-10T02:05:01.377Z,7.6
2018-09-10T02:10:01.441Z,7.5
2018-09-10T02:15:01.378Z,7.5
2018-09-10T02:20:01.378Z,7.4
2018-09-10T02:25:01.309Z,7.4
2018-09-10T02:30:06.459Z,7.3
2018-09-10T02:35:06.330Z,7.5
2018-09-10T02:40:06.425Z,7.5
2018-09-10T02:45:06.300Z,7.6
2018-09-10T02:55:01.645Z,7.8
2018-09-10T03:00:06.451Z,8.0
2018-09-10T03:05:06.369Z,8.4
2018-09-10T03:11:01.428Z,8.5
2018-09-10T03:16:01.375Z,8.6
2018-09-10T03:21:01.514Z,8.8
2018-09-10T03:26:01.417Z,8.8
2018-09-10T03:31:01.433Z,8.3
2018-09-10T03:36:01.455Z,8.3
2018-09-10T03:41:01.389Z,8.6
2018-09-10T03:46:01.416Z,8.5
2018-09-10T03:51:01.394Z,8.6
2018-09-10T03:56:01.359Z,9.4
2018-09-10T04:01:01.385Z,10.1
2018-09-10T04:06:01.330Z,10.6
2018-09-10T04:11:01.396Z,11.2
2018-09-10T04:16:01.339Z,11.6
2018-09-10T04:21:01.385Z,11.7
2018-09-10T04:26:01.742Z,11.8
2018-09-10T04:31:01.360Z,12.1
2018-09-10T04:36:01.642Z,12.1
2018-09-10T04:41:01.443Z,12.3
2018-09-10T04:51:01.352Z,12.9
2018-09-10T04:56:01.446Z,12.7
2018-09-10T05:01:01.431Z,12.9
2018-09-10T05:06:06.392Z,13.2
2018-09-10T05:16:01.451Z,13.5
2018-09-10T05:21:01.399Z,13.1
2018-09-10T05:26:01.355Z,13.3
2018-09-10T05:31:01.336Z,13.4
2018-09-10T05:36:01.363Z,13.7
2018-09-10T05:42:01.458Z,13.5
2018-09-10T05:47:01.350Z,14.4
2018-09-10T05:52:01.294Z,14.4
2018-09-10T05:57:01.385Z,14.5
2018-09-10T06:02:01.390Z,14.8
2018-09-10T06:07:01.348Z,15.1
2018-09-10T06:12:01.460Z,14.8
2018-09-10T06:17:01.520Z,15.6
2018-09-10T06:22:01.364Z,15.8
2018-09-10T06:27:01.463Z,16.1
2018-09-10T06:32:01.409Z,16.3
2018-09-10T06:37:01.655Z,16.6
2018-09-10T06:47:01.418Z,17.8
2018-09-10T06:52:01.432Z,18.4
2018-09-10T06:57:06.449Z,19.0
2018-09-10T07:02:01.329Z,19.5
2018-09-10T07:07:01.416Z,19.4
2018-09-10T07:12:06.369Z,19.4
2018-09-10T07:17:01.386Z,19.3
2018-09-10T07:27:01.351Z,19.7
2018-09-10T07:32:01.383Z,20.3
2018-09-10T07:37:01.429Z,20.0
2018-09-10T07:47:01.389Z,20.1
2018-09-10T07:52:01.372Z,20.0
2018-09-10T07:57:01.527Z,19.2
2018-09-10T08:03:01.592Z,19.4
2018-09-10T08:13:06.427Z,19.5
2018-09-10T08:18:01.480Z,19.8
2018-09-10T08:23:06.361Z,20.3
2018-09-10T08:28:01.385Z,20.3
2018-09-10T08:33:06.392Z,20.2
2018-09-10T08:38:01.521Z,20.2
2018-09-10T08:43:01.440Z,19.8
2018-09-10T08:48:01.488Z,19.6
2018-09-10T08:53:06.433Z,19.7
2018-09-10T08:58:01.447Z,19.7
2018-09-10T09:03:01.320Z,19.6
2018-09-10T09:08:06.758Z,19.4
2018-09-10T09:13:06.351Z,19.0
2018-09-10T09:18:06.360Z,18.3
2018-09-10T09:23:01.480Z,16.7
2018-09-10T09:28:01.455Z,15.1
2018-09-10T09:33:01.357Z,13.7
2018-09-10T09:38:01.460Z,12.0
2018-09-10T09:43:01.376Z,10.2
2018-09-10T09:48:06.461Z,8.5
2018-09-10T09:53:06.379Z,6.9
2018-09-10T09:59:01.476Z,5.1
2018-09-10T10:04:01.536Z,4.1
2018-09-10T10:09:01.414Z,3.0
2018-09-10T10:14:01.382Z,2.9
2018-09-10T10:19:01.417Z,2.5
2018-09-10T10:24:01.322Z,2.4
2018-09-10T10:29:01.515Z,2.0
2018-09-10T10:34:01.385Z,1.8
2018-09-10T10:39:01.515Z,1.7
2018-09-10T10:44:01.323Z,1.5
2018-09-10T10:54:01.363Z,1.3
2018-09-10T11:00:01.411Z,1.3
2018-09-10T11:05:06.383Z,1.0
2018-09-10T11:10:06.448Z,1.0
2018-09-10T11:15:06.354Z,1.2
2018-09-10T11:20:01.458Z,1.1
2018-09-10T11:30:01.425Z,1.1
2018-09-10T11:40:01.406Z,0.9
2018-09-10T11:45:01.396Z,1.0
2018-09-10T11:50:01.404Z,0.8
2018-09-10T11:55:01.384Z,1.0
2018-09-10T12:00:01.474Z,0.8
2018-09-10T12:15:01.492Z,0.8
2018-09-10T12:25:01.367Z,0.3
2018-09-10T12:30:01.509Z,0.2
2018-09-10T12:40:01.420Z,0.2
2018-09-10T12:45:06.394Z,0.3
2018-09-10T12:55:06.396Z,0.3
2018-09-10T13:00:01.477Z,0.4
2018-09-10T13:05:01.393Z,0.4
2018-09-10T13:10:01.414Z,0.4
2018-09-10T13:15:01.414Z,0.5
2018-09-10T13:30:01.455Z,0.4
2018-09-10T13:35:01.354Z,0.4
2018-09-10T13:40:01.391Z,0.4
2018-09-10T13:45:01.399Z,0.6
2018-09-10T13:50:01.379Z,0.8
2018-09-10T13:55:01.383Z,0.8
2018-09-10T14:00:01.378Z,0.8
2018-09-10T14:05:01.407Z,0.7
2018-09-10T14:10:01.377Z,0.6
2018-09-10T14:15:01.317Z,0.6
2018-09-10T14:20:01.442Z,0.6
2018-09-10T14:25:01.364Z,0.7
2018-09-10T14:30:01.392Z,0.9
2018-09-10T14:35:01.546Z,1.0
2018-09-10T14:40:01.450Z,1.2
2018-09-10T14:45:01.373Z,1.4
2018-09-10T14:55:01.454Z,1.5
2018-09-10T15:00:06.506Z,1.5
2018-09-10T15:05:01.342Z,1.3
2018-09-10T15:10:01.445Z,1.2
2018-09-10T15:15:06.362Z,1.4
2018-09-10T15:20:06.448Z,1.4
2018-09-10T15:25:01.392Z,1.4
2018-09-10T15:30:01.454Z,1.4
2018-09-10T15:40:01.483Z,1.5
2018-09-10T15:45:01.390Z,1.4
2018-09-10T15:50:01.459Z,1.5
2018-09-10T16:00:01.578Z,1.4
2018-09-10T16:05:01.294Z,1.4
2018-09-10T16:10:01.462Z,1.5
2018-09-10T16:15:01.364Z,1.6
2018-09-10T16:20:01.395Z,1.6
2018-09-10T16:25:01.348Z,1.9
2018-09-10T16:30:01.449Z,2.0
2018-09-10T16:35:01.352Z,1.8
2018-09-10T16:40:01.567Z,1.8
2018-09-10T16:45:01.319Z,2.0
2018-09-10T16:50:01.452Z,2.0
2018-09-10T17:00:01.396Z,2.1
2018-09-10T17:05:01.463Z,2.1
2018-09-10T17:11:01.439Z,1.9
2018-09-10T17:21:01.347Z,1.9
2018-09-10T17:26:01.382Z,1.9
2018-09-10T17:36:01.477Z,1.9
2018-09-10T17:46:01.359Z,2.3
2018-09-10T17:56:01.394Z,2.5
2018-09-10T18:01:01.381Z,2.5
2018-09-10T18:06:01.342Z,2.3
2018-09-10T18:11:01.704Z,2.2
2018-09-10T18:16:01.349Z,2.2
2018-09-10T18:21:01.442Z,2.4
2018-09-10T18:26:01.386Z,2.6
2018-09-10T18:31:01.997Z,2.8
2018-09-10T18:36:01.320Z,2.9
2018-09-10T18:41:01.331Z,2.9
2018-09-10T18:46:06.396Z,3.1
2018-09-10T18:51:06.356Z,2.9
2018-09-10T18:56:01.409Z,3.1
2018-09-10T19:06:01.394Z,3.4
2018-09-10T19:16:06.379Z,3.7
2018-09-10T19:21:01.467Z,3.6
2018-09-10T19:26:06.394Z,3.8
2018-09-10T19:31:06.359Z,3.6
2018-09-10T19:36:06.397Z,3.6
2018-09-10T19:41:06.394Z,3.9
2018-09-10T19:46:06.363Z,4.0
2018-09-10T19:51:06.396Z,4.1
2018-09-10T19:56:01.373Z,4.3
2018-09-10T20:06:01.376Z,4.0
2018-09-10T20:11:06.385Z,4.0
2018-09-10T20:21:01.507Z,3.6
2018-09-10T20:26:01.354Z,3.9
2018-09-10T20:31:01.356Z,4.3
2018-09-10T20:36:01.428Z,4.5
2018-09-10T20:51:06.492Z,4.6
2018-09-10T20:56:01.427Z,4.2
2018-09-10T21:01:06.424Z,4.0
2018-09-10T21:06:01.393Z,3.8
2018-09-10T21:11:01.511Z,3.7
2018-09-10T21:16:01.475Z,3.5
2018-09-10T21:21:01.419Z,3.5
2018-09-10T21:26:01.424Z,3.6
2018-09-10T21:31:01.481Z,3.8
2018-09-10T21:36:06.322Z,4.0
2018-09-10T21:41:01.417Z,3.8
2018-09-10T21:46:06.392Z,3.6
2018-09-10T21:51:01.387Z,3.4
2018-09-10T21:56:01.330Z,3.2
2018-09-10T22:01:01.523Z,2.8
2018-09-10T22:06:01.378Z,2.7
2018-09-10T22:11:01.377Z,2.5
2018-09-10T22:16:01.321Z,2.6
2018-09-10T22:21:06.365Z,2.6
2018-09-10T22:26:01.433Z,2.6
2018-09-10T22:31:01.513Z,2.7
2018-09-10T22:36:01.357Z,2.9
2018-09-10T22:41:01.450Z,2.7
2018-09-10T22:46:01.358Z,2.5
2018-09-10T22:51:01.477Z,2.6
2018-09-10T22:56:01.356Z,2.6
2018-09-10T23:01:01.355Z,2.5
2018-09-10T23:06:01.348Z,2.6
2018-09-10T23:16:01.384Z,2.4
2018-09-10T23:21:01.410Z,2.2
2018-09-10T23:26:01.316Z,2.3
2018-09-10T23:31:01.448Z,2.5
2018-09-10T23:36:01.349Z,2.7
2018-09-10T23:41:01.384Z,2.8
2018-09-10T23:46:01.323Z,2.8
2018-09-10T23:51:01.495Z,2.8
2018-09-10T23:56:06.365Z,2.6
